• Join FlightAware (Why Join?)
  • Login
  • US Flag 
09:11PM EST


 

Airport Tracker/Info


-or-


 

Live Flight TrackerFlight Track Log ✈ UAL5908 ✈ 03-May-2013 ✈ KIAD - CYOW

Flight Track Log - Related Links

Times and Time Zones

All times are in EDT time to prevent confusion due to time zone crossing. See the UAL5908 flight status page for this flight to view local times or setup timezone preferences in your user account.

Time Position Orientation Groundspeed Altitude Reporting Facility
EDT Latitude Longitude Course Direction KTS MPH feet Rate Location/Type
08:03AM 38.9667 -77.5333 333° Northwest 207 238 2,800  Level Potomac TRACON
08:03AM 39.0167 -77.5667 333° Northwest 269 310 4,600 2,580 Climbing Potomac TRACON
08:05AM 39.1000 -77.5833 351° North 278 320 8,000 2,460 Climbing Potomac TRACON
08:07AM 39.2619 -77.5697 North 288 331 12,300 1,980 Climbing Washington Center
08:08AM 39.3542 -77.5428 13° North 310 357 14,000 1,680 Climbing Washington Center
08:09AM 39.4483 -77.5131 14° North 334 384 15,800 1,680 Climbing Washington Center
08:10AM 39.5467 -77.4833 13° North 345 397 17,400 1,260 Climbing Washington Center
08:11AM 39.6450 -77.4564 12° North 357 411 18,300 1,140 Climbing Washington Center
08:12AM 39.7514 -77.4536 North 367 422 19,800 1,200 Climbing Washington Center
08:13AM 39.8700 -77.4522 North 393 452 21,000 1,260 Climbing New York Center
08:14AM 39.9786 -77.4489 North 398 458 22,600 1,500 Climbing New York Center
08:15AM 40.0869 -77.4158 13° North 398 458 24,100 1,140 Climbing New York Center
08:16AM 40.2081 -77.3758 14° North 398 458 25,000 900 Climbing New York Center
08:17AM 40.3206 -77.3375 15° North 403 464 26,000 1,200 Climbing New York Center
08:18AM 40.4331 -77.3019 14° North 403 464 27,500 1,500 Climbing New York Center
08:19AM 40.5372 -77.2681 14° North 403 464 29,000 1,500 Climbing New York Center
08:20AM 40.6453 -77.2344 13° North 403 464 30,500 1,440 Climbing New York Center
08:21AM 40.7514 -77.1978 15° North 403 464 32,000 1,440 Climbing New York Center
08:22AM 40.8597 -77.1614 14° North 403 464 33,500 1,380 Climbing New York Center
08:23AM 40.9681 -77.1247 14° North 403 464 34,800 720 Climbing New York Center
08:24AM 41.0783 -77.0883 14° North 403 464 35,000 60 Climbing New York Center
08:25AM 41.1972 -77.0469 15° North 409 471 35,000  Level New York Center
08:26AM 41.3139 -77.0081 14° North 419 482 35,000  Level New York Center
08:27AM 41.4283 -76.9717 13° North 419 482 35,000  Level New York Center
08:28AM 41.5428 -76.9297 15° North 424 488 35,000  Level New York Center
08:29AM 41.6469 -76.8919 15° North 424 488 35,000  Level New York Center
08:33AM 42.1044 -76.7333 14° North 411 473 35,000  Level Boston Center
08:34AM 42.2164 -76.6933 15° North 411 473 35,000  Level Boston Center
08:35AM 42.3306 -76.6533 15° North 406 467 35,000  Level Boston Center
08:36AM 42.4444 -76.6161 14° North 406 467 35,000  Level Boston Center
08:37AM 42.5606 -76.5758 14° North 417 480 35,000  Level Boston Center
08:38AM 42.6728 -76.5325 16° North 417 480 35,000  Level Boston Center
08:39AM 42.7844 -76.4947 14° North 417 480 35,000  Level Boston Center
08:40AM 42.8986 -76.4539 15° North 417 480 35,000  Level Boston Center
08:41AM 43.0128 -76.4131 15° North 417 480 35,000  Level Boston Center
08:42AM 43.1244 -76.3719 15° North 417 480 35,000  Level Boston Center
08:43AM 43.2386 -76.3308 15° North 417 480 35,000  Level Boston Center
08:44AM 43.3778 -76.2825 14° North 417 480 35,000  Level Boston Center
08:45AM 43.4897 -76.2381 16° North 417 480 35,000 -240 Level Boston Center
08:46AM 43.6039 -76.1967 15° North 417 480 34,600 -720 Descending Boston Center
08:47AM 43.7156 -76.1547 15° North 417 480 33,600 -1,020 Descending Boston Center
08:48AM 43.8275 -76.1125 15° North 417 480 32,600 -960 Descending Boston Center
08:49AM 43.9414 -76.0678 16° North 417 480 31,700 -1,320 Descending Boston Center
08:50AM 44.0478 -76.0047 23° Northeast 417 480 30,000 -1,860 Descending Boston Center
08:51AM 44.1561 -75.9331 25° Northeast 417 480 28,000 -2,100 Descending Boston Center
08:52AM 44.2689 -75.8586 25° Northeast 433 498 25,800 -2,400 Descending Boston Center
08:53AM 44.3794 -75.7836 26° Northeast 433 498 23,300 -2,640 Descending Boston Center
08:54AM 44.4500 -75.7333 27° Northeast 430 495 21,400 -2,640 Descending Montreal Center
08:55AM 44.5500 -75.6667 25° Northeast 410 472 18,900 -2,280 Descending Montreal Center
08:56AM 44.6500 -75.6000 25° Northeast 390 449 16,900 -2,220 Descending Montreal Center
08:57AM 44.7333 -75.5500 23° Northeast 370 426 14,500 -2,460 Descending Montreal Center
08:58AM 44.8167 -75.4667 35° Northeast 340 391 12,000 -2,100 Descending Montreal Center
08:59AM 44.9000 -75.4167 23° Northeast 300 345 10,300 -1,800 Descending Montreal Center
09:00AM 44.9667 -75.4167 360° North 250 288 8,400 -1,920 Descending Montreal Center
09:01AM 44.9833 -75.5167 283° West 270 311 6,500 -1,800 Descending Montreal Center
09:02AM 45.0000 -75.6333 281° West 270 311 4,900 -1,320 Descending Montreal Center
09:03AM 45.0333 -75.7333 295° West 260 299 3,900 -600 Descending Montreal Center
09:04AM 45.0667 -75.8000 305° West 250 288 3,700 -480 Descending Montreal Center
09:05AM 45.1167 -75.8667 317° Northwest 230 265 3,000 -360 Descending Montreal Center
09:06AM 45.1833 -75.9000 341° North 240 276 3,000 -60 Level Montreal Center
09:07AM 45.2167 -75.8333 55° Northeast 200 230 2,900 -540 Descending Montreal Center
09:08AM 45.2500 -75.7833 47° Northeast 200 230 2,000 -900 Descending Montreal Center
09:09AM 45.2667 -75.7000 74° East 130 150 1,200 -780 Descending Montreal Center
09:10AM 45.2833 -75.6833 35° Northeast 130 150 500 -720 Descending Montreal Center